createdAt,value
2023-02-17T00:01:40.621Z,6.03
2023-02-17T00:04:09.294Z,6.17
2023-02-17T00:06:37.977Z,6.20
2023-02-17T00:09:07.626Z,5.30
2023-02-17T00:11:36.251Z,5.50
2023-02-17T00:14:06.390Z,5.73
2023-02-17T00:16:35.262Z,6.40
2023-02-17T00:19:24.847Z,5.70
2023-02-17T00:21:55.779Z,5.67
2023-02-17T00:24:24.550Z,6.77
2023-02-17T00:26:53.335Z,4.93
2023-02-17T00:29:24.231Z,5.40
2023-02-17T00:31:54.706Z,6.13
2023-02-17T00:34:25.031Z,5.53
2023-02-17T00:36:54.047Z,5.07
2023-02-17T00:39:22.894Z,5.70
2023-02-17T00:41:51.939Z,5.53
2023-02-17T00:44:25.267Z,5.53
2023-02-17T00:46:54.012Z,5.37
2023-02-17T00:49:25.269Z,5.27
2023-02-17T00:51:54.671Z,5.50
2023-02-17T00:54:23.353Z,5.53
2023-02-17T00:56:51.996Z,5.73
2023-02-17T00:59:20.827Z,5.40
2023-02-17T01:01:50.821Z,5.47
2023-02-17T01:04:19.458Z,5.30
2023-02-17T01:06:48.264Z,5.47
2023-02-17T01:09:17.207Z,5.67
2023-02-17T01:11:45.843Z,5.80
2023-02-17T01:14:16.062Z,5.27
2023-02-17T01:16:49.209Z,5.50
2023-02-17T01:19:20.998Z,4.90
2023-02-17T01:21:50.473Z,5.47
2023-02-17T01:24:19.192Z,5.53
2023-02-17T01:26:48.108Z,5.00
2023-02-17T01:29:16.811Z,5.30
2023-02-17T01:31:46.061Z,4.73
2023-02-17T01:34:14.827Z,5.37
2023-02-17T01:36:44.851Z,5.43
2023-02-17T01:39:15.787Z,5.37
2023-02-17T01:41:45.560Z,4.83
2023-02-17T01:44:18.101Z,5.80
2023-02-17T01:46:49.200Z,5.80
2023-02-17T01:49:34.944Z,5.00
2023-02-17T01:52:12.334Z,5.10
2023-02-17T01:54:46.943Z,5.77
2023-02-17T01:57:20.060Z,5.10
2023-02-17T01:59:49.195Z,5.33
2023-02-17T02:02:18.578Z,5.60
2023-02-17T02:04:50.981Z,4.80
2023-02-17T02:07:25.751Z,5.17
2023-02-17T02:09:57.389Z,5.10
2023-02-17T02:12:29.836Z,5.43
2023-02-17T02:15:05.155Z,5.10
2023-02-17T02:17:42.814Z,5.10
2023-02-17T02:20:41.347Z,5.40
2023-02-17T02:23:49.919Z,5.00
2023-02-17T02:27:30.493Z,5.13
2023-02-17T02:30:43.938Z,5.30
2023-02-17T02:33:25.119Z,4.93
2023-02-17T02:36:01.131Z,5.13
2023-02-17T02:38:36.941Z,4.87
2023-02-17T02:41:11.966Z,5.40
2023-02-17T02:43:41.136Z,5.10
2023-02-17T02:46:10.691Z,5.87
2023-02-17T02:48:42.083Z,5.63
2023-02-17T02:51:30.237Z,5.43
2023-02-17T02:54:29.113Z,5.70
2023-02-17T02:57:32.793Z,5.20
2023-02-17T03:00:13.865Z,5.20
2023-02-17T03:02:52.452Z,5.23
2023-02-17T03:05:34.838Z,5.17
2023-02-17T03:08:10.038Z,5.40
2023-02-17T03:10:47.823Z,5.10
2023-02-17T03:13:17.023Z,5.37
2023-02-17T03:15:46.772Z,5.80
2023-02-17T03:18:15.509Z,4.97
2023-02-17T03:20:53.060Z,5.00
2023-02-17T03:23:22.067Z,4.70
2023-02-17T03:25:51.120Z,4.77
2023-02-17T03:28:19.789Z,4.60
2023-02-17T03:30:49.371Z,5.47
2023-02-17T03:33:18.069Z,5.10
2023-02-17T03:35:48.080Z,5.03
2023-02-17T03:38:16.792Z,5.00
2023-02-17T03:40:45.452Z,4.47
2023-02-17T03:43:14.702Z,4.77
2023-02-17T03:45:43.607Z,4.87
2023-02-17T03:48:12.203Z,5.43
2023-02-17T03:50:40.860Z,5.00
2023-02-17T03:53:12.597Z,5.40
2023-02-17T03:55:41.239Z,4.63
2023-02-17T03:58:09.910Z,5.27
2023-02-17T04:00:38.676Z,4.87
2023-02-17T04:03:07.755Z,4.53
2023-02-17T04:05:36.355Z,5.10
2023-02-17T04:08:05.031Z,5.17
2023-02-17T04:10:34.984Z,4.67
2023-02-17T04:13:03.663Z,4.13
2023-02-17T04:15:32.340Z,5.03
2023-02-17T04:18:00.978Z,4.60
2023-02-17T04:20:29.772Z,4.20
2023-02-17T04:22:58.388Z,4.80
2023-02-17T04:25:27.033Z,4.10
2023-02-17T04:27:57.081Z,4.63
2023-02-17T04:30:25.717Z,4.57
2023-02-17T04:32:54.429Z,4.50
2023-02-17T04:35:23.459Z,4.67
2023-02-17T04:37:52.473Z,4.93
2023-02-17T04:40:21.759Z,4.37
2023-02-17T04:42:50.416Z,4.83
2023-02-17T04:45:20.682Z,4.37
2023-02-17T04:47:49.300Z,4.93
2023-02-17T04:50:19.539Z,4.80
2023-02-17T04:52:49.754Z,4.60
2023-02-17T04:55:18.558Z,4.60
2023-02-17T04:57:47.225Z,4.63
2023-02-17T05:00:16.648Z,4.70
2023-02-17T05:02:46.735Z,5.37
2023-02-17T05:05:16.011Z,4.43
2023-02-17T05:07:44.837Z,4.73
2023-02-17T05:10:14.237Z,4.80
2023-02-17T05:12:43.163Z,3.90
2023-02-17T05:15:13.598Z,5.03
2023-02-17T05:17:42.433Z,4.13
2023-02-17T05:20:13.180Z,4.30
2023-02-17T05:22:41.870Z,4.80
2023-02-17T05:25:10.677Z,4.20
2023-02-17T05:27:39.334Z,4.33
2023-02-17T05:30:09.235Z,4.40
2023-02-17T05:32:37.829Z,4.43
2023-02-17T05:35:07.205Z,4.57
2023-02-17T05:37:37.345Z,4.53
2023-02-17T05:40:08.034Z,4.73
2023-02-17T05:42:36.615Z,4.63
2023-02-17T05:45:05.530Z,4.10
2023-02-17T05:47:35.563Z,4.63
2023-02-17T05:50:04.757Z,4.60
2023-02-17T05:52:33.571Z,4.17
2023-02-17T05:55:04.821Z,4.47
2023-02-17T05:57:33.930Z,4.47
2023-02-17T06:00:02.678Z,3.80
2023-02-17T06:02:40.745Z,4.03
2023-02-17T06:05:10.529Z,4.27
2023-02-17T06:07:39.320Z,4.37
2023-02-17T06:10:10.930Z,4.63
2023-02-17T06:12:39.617Z,4.07
2023-02-17T06:15:09.284Z,4.73
2023-02-17T06:17:39.068Z,4.53
2023-02-17T06:20:10.006Z,4.40
2023-02-17T06:22:38.599Z,4.57
2023-02-17T06:25:09.151Z,4.03
2023-02-17T06:27:37.869Z,4.17
2023-02-17T06:30:08.360Z,3.67
2023-02-17T06:32:37.060Z,4.37
2023-02-17T06:35:06.120Z,4.70
2023-02-17T06:37:34.769Z,4.03
2023-02-17T06:40:03.500Z,3.83
2023-02-17T06:42:33.661Z,3.60
2023-02-17T06:45:05.503Z,4.00
2023-02-17T06:47:34.293Z,3.73
2023-02-17T06:50:02.964Z,4.33
2023-02-17T06:52:31.656Z,4.10
2023-02-17T06:55:00.349Z,4.47
2023-02-17T06:57:29.462Z,4.10
2023-02-17T06:59:59.461Z,3.90
2023-02-17T07:02:28.563Z,3.80
2023-02-17T07:04:57.222Z,3.80
2023-02-17T07:07:26.028Z,4.70
2023-02-17T07:09:54.627Z,4.23
2023-02-17T07:12:23.214Z,4.33
2023-02-17T07:14:51.884Z,3.70
2023-02-17T07:17:21.995Z,4.00
2023-02-17T07:19:50.649Z,4.17
2023-02-17T07:22:19.299Z,3.40
2023-02-17T07:24:50.862Z,3.47
2023-02-17T07:27:19.567Z,4.17
2023-02-17T07:29:48.199Z,3.33
2023-02-17T07:32:16.836Z,3.97
2023-02-17T07:34:47.020Z,5.93
2023-02-17T07:37:15.711Z,5.57
2023-02-17T07:39:44.336Z,5.03
2023-02-17T07:42:12.995Z,5.33
2023-02-17T07:44:41.590Z,5.10
2023-02-17T07:47:10.240Z,4.27
2023-02-17T07:49:38.795Z,3.80
2023-02-17T07:52:09.153Z,4.03
2023-02-17T07:54:38.137Z,3.83
2023-02-17T07:57:06.720Z,3.50
2023-02-17T07:59:35.336Z,4.10
2023-02-17T08:02:04.385Z,4.27
2023-02-17T08:04:33.752Z,5.17
2023-02-17T08:07:02.447Z,5.90
2023-02-17T08:09:52.527Z,5.27
2023-02-17T08:12:40.689Z,4.27
2023-02-17T08:15:12.193Z,4.53
2023-02-17T08:17:40.881Z,4.37
2023-02-17T08:20:13.501Z,3.97
2023-02-17T08:22:42.208Z,3.77
2023-02-17T08:25:12.290Z,3.20
2023-02-17T08:27:40.980Z,3.73
2023-02-17T08:30:11.192Z,3.10
2023-02-17T08:32:40.099Z,3.63
2023-02-17T08:35:10.562Z,3.53
2023-02-17T08:37:39.184Z,3.10
2023-02-17T08:40:11.342Z,3.50
2023-02-17T08:42:40.033Z,3.23
2023-02-17T08:45:09.481Z,3.27
2023-02-17T08:47:38.091Z,3.00
2023-02-17T08:50:10.022Z,2.90
2023-02-17T08:52:38.694Z,2.90
2023-02-17T08:55:08.034Z,3.07
2023-02-17T08:57:38.341Z,3.30
2023-02-17T09:00:11.004Z,3.43
2023-02-17T09:02:42.742Z,3.40
2023-02-17T09:05:14.274Z,4.00
2023-02-17T09:07:43.300Z,3.50
2023-02-17T09:10:16.599Z,3.73
2023-02-17T09:12:46.660Z,3.20
2023-02-17T09:15:15.274Z,3.77
2023-02-17T09:17:44.036Z,3.30
2023-02-17T09:20:24.365Z,3.33
2023-02-17T09:22:53.730Z,3.73
2023-02-17T09:25:23.970Z,3.87
2023-02-17T09:27:54.028Z,4.30
2023-02-17T09:30:22.929Z,4.27
2023-02-17T09:32:51.671Z,3.73
2023-02-17T09:35:20.932Z,3.33
2023-02-17T09:37:49.722Z,3.33
2023-02-17T09:40:22.993Z,3.40
2023-02-17T09:42:53.088Z,3.17
2023-02-17T09:45:27.670Z,3.30
2023-02-17T09:48:04.844Z,3.13
2023-02-17T09:50:41.430Z,2.90
2023-02-17T09:53:17.638Z,3.10
2023-02-17T09:55:51.523Z,3.30
2023-02-17T09:58:25.468Z,3.77
2023-02-17T10:00:58.510Z,4.00
2023-02-17T10:03:32.598Z,2.90
2023-02-17T10:06:14.657Z,2.80
2023-02-17T10:08:50.399Z,2.80
2023-02-17T10:11:29.653Z,2.33
2023-02-17T10:14:04.664Z,2.70
2023-02-17T10:16:40.001Z,2.83
2023-02-17T10:19:15.503Z,2.93
2023-02-17T10:21:49.860Z,3.40
2023-02-17T10:24:18.668Z,2.93
2023-02-17T10:26:58.997Z,3.37
2023-02-17T10:29:40.409Z,3.03
2023-02-17T10:32:23.452Z,2.93
2023-02-17T10:35:15.572Z,3.17
2023-02-17T10:37:49.317Z,4.20
2023-02-17T10:40:24.662Z,4.07
2023-02-17T10:42:58.077Z,3.87
2023-02-17T10:45:33.566Z,3.30
2023-02-17T10:48:09.147Z,3.33
2023-02-17T10:50:39.302Z,3.27
2023-02-17T10:53:17.422Z,3.10
2023-02-17T10:55:57.397Z,2.80
2023-02-17T10:58:32.640Z,3.20
2023-02-17T11:01:05.513Z,3.00
2023-02-17T11:03:36.940Z,2.93
2023-02-17T11:06:17.668Z,3.37
2023-02-17T11:08:51.064Z,3.73
2023-02-17T11:11:23.003Z,3.40
2023-02-17T11:14:11.177Z,3.43
2023-02-17T11:16:45.637Z,3.00
2023-02-17T11:19:25.890Z,3.23
2023-02-17T11:21:57.231Z,2.80
2023-02-17T11:24:26.296Z,3.37
2023-02-17T11:27:00.544Z,3.47
2023-02-17T11:29:30.381Z,3.33
2023-02-17T11:32:04.944Z,2.90
2023-02-17T11:34:36.151Z,2.87
2023-02-17T11:37:21.438Z,2.50
2023-02-17T11:39:53.450Z,2.60
2023-02-17T11:42:24.202Z,2.90
2023-02-17T11:44:53.768Z,2.90
2023-02-17T11:47:36.074Z,2.20
2023-02-17T11:50:31.961Z,2.43
2023-02-17T11:53:20.646Z,2.30
2023-02-17T11:56:06.455Z,2.80
2023-02-17T11:58:57.598Z,3.10
2023-02-17T12:01:49.635Z,2.73
2023-02-17T12:04:43.750Z,2.73
2023-02-17T12:07:41.319Z,2.97
2023-02-17T12:10:20.242Z,4.37
2023-02-17T12:13:06.735Z,3.50
2023-02-17T12:15:57.056Z,3.17
2023-02-17T12:18:43.507Z,2.90
2023-02-17T12:21:21.887Z,3.27
2023-02-17T12:24:37.908Z,3.17
2023-02-17T12:27:28.837Z,2.33
2023-02-17T12:30:17.065Z,2.77
2023-02-17T12:33:03.579Z,2.30
2023-02-17T12:35:51.060Z,2.30
2023-02-17T12:38:27.709Z,2.07
2023-02-17T12:41:06.086Z,2.10
2023-02-17T12:43:42.318Z,1.97
2023-02-17T12:46:14.637Z,2.03
2023-02-17T12:48:49.330Z,2.67
2023-02-17T12:51:23.908Z,3.37
2023-02-17T12:53:58.413Z,3.63
2023-02-17T12:56:51.697Z,3.10
2023-02-17T12:59:23.833Z,2.37
2023-02-17T13:02:01.737Z,2.27
2023-02-17T13:04:32.878Z,2.07
2023-02-17T13:07:44.180Z,2.10
2023-02-17T13:10:35.724Z,2.00
2023-02-17T13:13:07.958Z,1.90
2023-02-17T13:15:40.972Z,1.73
2023-02-17T13:18:14.909Z,1.90
2023-02-17T13:20:59.801Z,1.70
2023-02-17T13:23:38.485Z,1.90
2023-02-17T13:26:30.036Z,1.80
2023-02-17T13:29:34.452Z,1.83
2023-02-17T13:32:06.337Z,2.10
2023-02-17T13:34:38.483Z,1.87
2023-02-17T13:37:22.583Z,1.70
2023-02-17T13:39:51.258Z,1.90
2023-02-17T13:42:40.237Z,1.87
2023-02-17T13:45:27.820Z,1.80
2023-02-17T13:47:59.395Z,2.07
2023-02-17T13:50:33.990Z,1.97
2023-02-17T13:53:04.527Z,2.17
2023-02-17T13:55:33.532Z,2.13
2023-02-17T13:58:03.930Z,2.17
2023-02-17T14:00:34.683Z,2.20
2023-02-17T14:03:17.744Z,2.40
2023-02-17T14:05:48.708Z,2.00
2023-02-17T14:08:25.369Z,2.03
2023-02-17T14:10:54.555Z,2.47
2023-02-17T14:13:25.872Z,2.83
2023-02-17T14:15:57.763Z,2.70
2023-02-17T14:18:33.830Z,2.70
2023-02-17T14:21:09.543Z,2.97
2023-02-17T14:23:52.233Z,2.30
2023-02-17T14:26:31.931Z,2.40
2023-02-17T14:29:05.165Z,2.73
2023-02-17T14:31:40.263Z,2.33
2023-02-17T14:34:14.939Z,2.30
2023-02-17T14:36:44.077Z,2.27
2023-02-17T14:39:17.109Z,2.60
2023-02-17T14:41:46.002Z,3.57
2023-02-17T14:44:15.985Z,3.83
2023-02-17T14:46:45.094Z,3.13
2023-02-17T14:49:13.741Z,3.10
2023-02-17T14:51:42.388Z,4.50
2023-02-17T14:54:16.238Z,4.50
2023-02-17T14:56:50.818Z,3.77
2023-02-17T14:59:20.849Z,3.53
2023-02-17T15:01:49.493Z,3.00
2023-02-17T15:04:18.184Z,3.27
2023-02-17T15:06:50.734Z,3.70
2023-02-17T15:09:22.393Z,3.03
2023-02-17T15:11:51.752Z,2.70
2023-02-17T15:14:23.163Z,2.47
2023-02-17T15:16:51.975Z,3.57
2023-02-17T15:19:20.715Z,4.53
2023-02-17T15:21:52.140Z,4.03
2023-02-17T15:24:28.245Z,3.70
2023-02-17T15:26:58.795Z,3.13
2023-02-17T15:29:29.221Z,3.60
2023-02-17T15:32:01.416Z,4.20
2023-02-17T15:34:33.882Z,3.60
2023-02-17T15:37:03.477Z,4.70
2023-02-17T15:39:32.210Z,4.30
2023-02-17T15:42:07.479Z,4.83
2023-02-17T15:44:44.291Z,3.90
2023-02-17T15:47:18.141Z,4.57
2023-02-17T15:49:46.857Z,5.23
2023-02-17T15:52:16.534Z,4.83
2023-02-17T15:54:46.312Z,4.50
2023-02-17T15:57:22.384Z,4.57
2023-02-17T15:59:55.034Z,5.80
2023-02-17T16:02:26.226Z,5.93
2023-02-17T16:04:54.875Z,6.07
2023-02-17T16:07:23.586Z,6.50
2023-02-17T16:09:52.253Z,6.10
2023-02-17T16:12:26.734Z,5.73
2023-02-17T16:14:58.146Z,5.10
2023-02-17T16:17:27.673Z,4.70
2023-02-17T16:19:56.341Z,4.90
2023-02-17T16:22:25.009Z,5.17
2023-02-17T16:24:53.584Z,5.00
2023-02-17T16:27:24.121Z,5.43
2023-02-17T16:29:52.798Z,4.77
2023-02-17T16:32:22.864Z,5.10
2023-02-17T16:34:52.027Z,5.07
2023-02-17T16:37:20.776Z,5.13
2023-02-17T16:39:49.390Z,5.63
2023-02-17T16:42:18.025Z,10.80
2023-02-17T16:44:46.947Z,9.23
2023-02-17T16:47:23.933Z,6.67
2023-02-17T16:49:52.812Z,6.40
2023-02-17T16:52:26.280Z,5.90
2023-02-17T16:54:55.314Z,6.27
2023-02-17T16:57:24.498Z,5.73
2023-02-17T16:59:53.443Z,5.13
2023-02-17T17:02:23.490Z,4.73
2023-02-17T17:04:52.329Z,5.17
2023-02-17T17:07:20.965Z,4.73
2023-02-17T17:10:14.728Z,5.30
2023-02-17T17:12:38.299Z,4.40
2023-02-17T17:15:07.557Z,5.33
2023-02-17T17:17:42.623Z,10.03
2023-02-17T17:20:16.895Z,7.90
2023-02-17T17:22:46.725Z,6.30
2023-02-17T17:25:15.880Z,5.43
2023-02-17T17:27:46.065Z,5.40
2023-02-17T17:30:19.742Z,4.63
2023-02-17T17:32:50.120Z,5.63
2023-02-17T17:35:19.079Z,6.27
2023-02-17T17:37:48.337Z,5.87
2023-02-17T17:40:22.206Z,5.13
2023-02-17T17:42:51.384Z,4.93
2023-02-17T17:45:20.236Z,4.87
2023-02-17T17:47:50.370Z,5.20
2023-02-17T17:50:23.849Z,7.47
2023-02-17T17:52:53.490Z,6.83
2023-02-17T17:55:22.157Z,5.70
2023-02-17T17:57:50.790Z,5.23
2023-02-17T18:00:20.819Z,4.87
2023-02-17T18:02:50.856Z,4.50
2023-02-17T18:05:19.786Z,3.93
2023-02-17T18:07:50.089Z,4.60
2023-02-17T18:10:18.967Z,4.10
2023-02-17T18:12:48.971Z,4.00
2023-02-17T18:15:18.628Z,4.47
2023-02-17T18:17:48.487Z,4.87
2023-02-17T18:20:18.789Z,3.87
2023-02-17T18:22:47.652Z,3.90
2023-02-17T18:25:16.293Z,3.40
2023-02-17T18:27:47.407Z,4.00
2023-02-17T18:30:19.293Z,4.00
2023-02-17T18:32:49.051Z,4.53
2023-02-17T18:35:19.714Z,5.83
2023-02-17T18:37:48.633Z,5.53
2023-02-17T18:40:20.639Z,5.00
2023-02-17T18:42:49.617Z,4.37
2023-02-17T18:45:18.714Z,4.90
2023-02-17T18:47:47.451Z,4.00
2023-02-17T18:50:18.548Z,4.67
2023-02-17T18:52:47.213Z,4.70
2023-02-17T18:55:16.603Z,4.27
2023-02-17T18:57:45.868Z,4.70
2023-02-17T19:00:17.201Z,3.80
2023-02-17T19:02:45.936Z,3.67
2023-02-17T19:05:17.491Z,4.93
2023-02-17T19:07:47.707Z,4.40
2023-02-17T19:10:17.320Z,4.10
2023-02-17T19:12:46.076Z,4.20
2023-02-17T19:15:17.312Z,3.30
2023-02-17T19:17:46.822Z,3.33
2023-02-17T19:20:17.181Z,3.63
2023-02-17T19:22:47.330Z,3.63
2023-02-17T19:25:15.994Z,3.70
2023-02-17T19:27:44.723Z,3.60
2023-02-17T19:30:14.912Z,3.63
2023-02-17T19:32:43.600Z,3.27
2023-02-17T19:35:12.262Z,3.60
2023-02-17T19:37:40.918Z,3.47
2023-02-17T19:40:11.986Z,3.43
2023-02-17T19:42:41.328Z,2.93
2023-02-17T19:45:10.446Z,3.17
2023-02-17T19:47:39.123Z,3.47
2023-02-17T19:50:09.342Z,2.83
2023-02-17T19:52:38.622Z,3.37
2023-02-17T19:55:09.782Z,3.77
2023-02-17T19:57:39.888Z,3.30
2023-02-17T20:00:10.858Z,3.37
2023-02-17T20:02:39.668Z,3.30
2023-02-17T20:05:09.061Z,2.70
2023-02-17T20:07:37.681Z,3.50
2023-02-17T20:10:10.706Z,3.57
2023-02-17T20:12:40.953Z,3.33
2023-02-17T20:15:10.627Z,3.50
2023-02-17T20:17:39.951Z,3.40
2023-02-17T20:20:12.477Z,3.20
2023-02-17T20:22:43.940Z,3.07
2023-02-17T20:25:12.581Z,2.90
2023-02-17T20:27:42.580Z,2.70
2023-02-17T20:30:12.519Z,3.23
2023-02-17T20:32:41.313Z,3.20
2023-02-17T20:35:13.323Z,2.53
2023-02-17T20:37:41.923Z,2.87
2023-02-17T20:40:11.368Z,3.40
2023-02-17T20:42:41.388Z,3.13
2023-02-17T20:45:10.308Z,2.83
2023-02-17T20:47:38.971Z,2.87
2023-02-17T20:50:09.383Z,3.10
2023-02-17T20:52:38.059Z,2.70
2023-02-17T20:55:07.296Z,2.97
2023-02-17T20:57:35.950Z,2.60
2023-02-17T21:00:08.211Z,2.70
2023-02-17T21:02:36.944Z,3.13
2023-02-17T21:05:05.810Z,3.03
2023-02-17T21:07:34.483Z,2.97
2023-02-17T21:10:03.352Z,2.90
2023-02-17T21:12:32.094Z,2.80
2023-02-17T21:15:00.698Z,3.00
2023-02-17T21:17:30.800Z,3.10
2023-02-17T21:19:59.414Z,3.17
2023-02-17T21:22:28.083Z,3.07
2023-02-17T21:24:56.939Z,3.00
2023-02-17T21:27:25.620Z,2.97
2023-02-17T21:29:54.363Z,2.60
2023-02-17T21:32:23.043Z,3.00
2023-02-17T21:34:53.260Z,3.10
2023-02-17T21:37:23.523Z,3.50
2023-02-17T21:39:52.480Z,3.00
2023-02-17T21:42:41.126Z,3.50
2023-02-17T21:45:09.870Z,3.43
2023-02-17T21:47:38.535Z,3.60
2023-02-17T21:50:10.075Z,3.37
2023-02-17T21:52:38.723Z,2.70
2023-02-17T21:55:07.676Z,3.27
2023-02-17T21:57:36.267Z,3.60
2023-02-17T22:00:06.462Z,3.40
2023-02-17T22:02:42.030Z,3.70
2023-02-17T22:05:13.316Z,3.37
2023-02-17T22:07:42.098Z,3.43
2023-02-17T22:10:11.311Z,3.50
2023-02-17T22:12:40.042Z,3.47
2023-02-17T22:15:10.885Z,3.63
2023-02-17T22:17:39.552Z,3.60
2023-02-17T22:20:10.232Z,3.67
2023-02-17T22:22:40.222Z,3.60
2023-02-17T22:25:09.245Z,3.47
2023-02-17T22:27:37.850Z,3.33
2023-02-17T22:30:09.070Z,3.30
2023-02-17T22:32:38.167Z,3.27
2023-02-17T22:35:07.460Z,3.70
2023-02-17T22:37:36.242Z,4.00
2023-02-17T22:40:08.695Z,4.50
2023-02-17T22:42:37.423Z,3.83
2023-02-17T22:45:07.605Z,4.27
2023-02-17T22:47:36.265Z,4.23
2023-02-17T22:50:06.200Z,4.17
2023-02-17T22:52:35.964Z,4.27
2023-02-17T22:55:06.884Z,3.83
2023-02-17T22:57:35.631Z,3.73
2023-02-17T23:00:04.624Z,3.60
2023-02-17T23:02:36.046Z,3.57
2023-02-17T23:05:05.075Z,3.57
2023-02-17T23:07:33.728Z,3.50
2023-02-17T23:10:02.390Z,3.60
2023-02-17T23:12:32.778Z,3.70
2023-02-17T23:15:02.332Z,3.53
2023-02-17T23:17:52.008Z,3.40
2023-02-17T23:20:21.061Z,3.07
2023-02-17T23:22:49.827Z,3.13
2023-02-17T23:25:18.676Z,3.37
2023-02-17T23:27:48.701Z,3.40
2023-02-17T23:30:22.217Z,3.63
2023-02-17T23:32:51.105Z,3.20
2023-02-17T23:35:20.259Z,3.10
2023-02-17T23:37:51.299Z,3.33
2023-02-17T23:40:20.650Z,3.33
2023-02-17T23:42:50.668Z,3.70
2023-02-17T23:45:19.593Z,3.20
2023-02-17T23:47:48.216Z,3.30
2023-02-17T23:50:17.299Z,2.80
2023-02-17T23:52:45.996Z,3.17
2023-02-17T23:55:14.591Z,3.00
2023-02-17T23:57:43.263Z,3.17
